Time;durP1;ratioP1;P1;durP2;ratioP2;P2;SDS_P1;SDS_P2;PMS_P1;PMS_P2;Temp;Humidity;BMP_temperature;BMP_pressure;BME280_temperature;BME280_humidity;BME280_pressure;Samples;Min_cycle;Max_cycle;Signal;HPM_P1;HPM_P2
2021/04/05 00:01:32;;;;;;;0.43;0.43;;;;;;;3.49;76.07;93122.19;5050699;28;20028;-39
2021/04/05 00:03:58;;;;;;;0.95;0.95;;;;;;;3.53;76.08;93124.66;5050818;28;20494;-39
2021/04/05 00:06:23;;;;;;;0.30;0.30;;;;;;;3.45;75.86;93129.94;5058908;28;20408;-40
2021/04/05 00:08:49;;;;;;;0.43;0.43;;;;;;;3.57;75.88;93128.56;5070483;28;20499;-39
2021/04/05 00:11:16;;;;;;;0.40;0.40;;;;;;;3.62;75.41;93130.50;5069180;28;20016;-38
2021/04/05 00:13:43;;;;;;;1.23;1.23;;;;;;;3.57;75.13;93131.28;5069751;28;20029;-39
2021/04/05 00:16:10;;;;;;;0.52;0.52;;;;;;;3.65;74.68;93126.75;5034723;28;20033;-40
2021/04/05 00:18:35;;;;;;;0.40;0.40;;;;;;;3.59;75.01;93136.25;5050278;28;20071;-39
2021/04/05 00:21:10;;;;;;;0.52;0.52;;;;;;;3.59;75.56;93133.53;5050065;28;20057;-40
2021/04/05 00:23:36;;;;;;;0.30;0.30;;;;;;;3.62;74.96;93133.22;5050799;28;20023;-39
2021/04/05 00:26:02;;;;;;;0.93;0.93;;;;;;;3.64;75.34;93132.72;5051726;28;20039;-39
2021/04/05 00:28:28;;;;;;;1.00;1.00;;;;;;;3.63;75.42;93133.97;5051775;28;20024;-40
2021/04/05 00:30:54;;;;;;;0.90;0.90;;;;;;;3.58;75.81;93137.50;5051617;28;20025;-39
2021/04/05 00:33:20;;;;;;;0.70;0.50;;;;;;;3.64;75.79;93136.19;5051241;28;20417;-39
2021/04/05 00:35:45;;;;;;;0.50;0.50;;;;;;;3.65;75.02;93134.22;5051363;28;20557;-40
2021/04/05 00:38:11;;;;;;;1.20;1.20;;;;;;;3.65;74.72;93139.66;5051518;28;20067;-43
2021/04/05 00:40:45;;;;;;;2.50;1.98;;;;;;;3.65;75.67;93147.84;5051285;28;20468;-40
2021/04/05 00:43:12;;;;;;;0.75;0.75;;;;;;;3.67;75.76;93142.63;5051181;28;20060;-42
2021/04/05 00:45:38;;;;;;;0.68;0.68;;;;;;;3.63;75.19;93139.44;5054064;28;20024;-42
2021/04/05 00:48:05;;;;;;;0.20;0.20;;;;;;;3.69;75.74;93134.66;5070268;28;20382;-43
2021/04/05 00:50:33;;;;;;;1.10;1.10;;;;;;;3.76;75.40;93134.09;5069218;28;20028;-40
2021/04/05 00:53:00;;;;;;;1.55;1.40;;;;;;;3.69;75.45;93134.66;5069641;28;20559;-44
2021/04/05 00:55:26;;;;;;;0.32;0.32;;;;;;;3.73;74.53;93129.66;5051072;28;20033;-39
2021/04/05 00:57:51;;;;;;;2.10;1.30;;;;;;;3.77;74.11;93127.38;5060119;28;20024;-40
2021/04/05 01:00:29;;;;;;;0.52;0.52;;;;;;;3.64;75.40;93132.72;5059460;28;20093;-41
2021/04/05 01:02:55;;;;;;;0.40;0.40;;;;;;;3.67;75.17;93139.91;5060569;28;20025;-42
2021/04/05 01:05:21;;;;;;;0.80;0.57;;;;;;;3.67;75.13;93140.63;5059365;28;20490;-43
2021/04/05 01:07:47;;;;;;;0.45;0.45;;;;;;;3.79;74.79;93141.25;5057745;28;20422;-40
2021/04/05 01:10:13;;;;;;;0.52;0.52;;;;;;;3.77;74.90;93138.28;5059899;28;20099;-42
2021/04/05 01:12:39;;;;;;;0.55;0.55;;;;;;;3.69;75.52;93131.94;5056218;28;20029;-44
2021/04/05 01:15:06;;;;;;;0.45;0.45;;;;;;;3.51;76.11;93133.34;5049950;28;20033;-44
2021/04/05 01:17:32;;;;;;;1.13;1.13;;;;;;;3.59;76.77;93134.28;5050025;28;20025;-42
2021/04/05 01:19:57;;;;;;;1.50;1.40;;;;;;;3.71;76.17;93130.16;5049693;28;20063;-43
2021/04/05 01:22:23;;;;;;;1.45;1.20;;;;;;;3.65;74.90;93134.22;5050084;28;20035;-40
2021/04/05 01:24:50;;;;;;;1.38;1.00;;;;;;;3.67;75.01;93131.69;5049592;28;20108;-43
2021/04/05 01:27:15;;;;;;;1.55;0.73;;;;;;;3.62;75.64;93137.94;5049701;28;20493;-41
2021/04/05 01:29:41;;;;;;;2.35;1.70;;;;;;;3.54;76.27;93134.31;5049528;28;20051;-43
2021/04/05 01:32:07;;;;;;;0.73;0.73;;;;;;;3.53;76.04;93130.84;5049881;28;20028;-41
2021/04/05 01:34:39;;;;;;;0.65;0.65;;;;;;;3.49;75.92;93135.09;5049312;28;20397;-42
2021/04/05 01:37:05;;;;;;;0.25;0.25;;;;;;;3.37;76.21;93133.72;5062975;28;20102;-42
2021/04/05 01:39:35;;;;;;;0.82;0.73;;;;;;;3.33;76.33;93122.38;5070602;28;20052;-43
2021/04/05 01:42:01;;;;;;;1.25;1.20;;;;;;;3.58;76.17;93132.03;5070743;28;20102;-43
2021/04/05 01:44:26;;;;;;;1.02;1.02;;;;;;;3.47;76.92;93143.06;5062553;28;20495;-40
2021/04/05 01:46:52;;;;;;;0.25;0.25;;;;;;;3.49;76.28;93132.38;5032610;28;20078;-40
2021/04/05 01:49:17;;;;;;;1.45;1.35;;;;;;;3.47;76.74;93137.59;5050732;28;20025;-40
2021/04/05 01:51:43;;;;;;;0.30;0.30;;;;;;;3.55;76.36;93135.81;5032981;28;20553;-41
2021/04/05 01:54:08;;;;;;;1.25;1.25;;;;;;;3.46;76.60;93131.41;5050272;28;20025;-42
2021/04/05 01:56:34;;;;;;;1.48;0.88;;;;;;;3.54;76.38;93137.03;5050644;28;20028;-41
2021/04/05 01:58:59;;;;;;;1.00;1.00;;;;;;;3.61;76.31;93142.69;5050567;28;20021;-41
2021/04/05 02:01:31;;;;;;;0.40;0.40;;;;;;;3.46;76.22;93142.34;5050566;28;20029;-44
2021/04/05 02:03:57;;;;;;;0.90;0.80;;;;;;;3.53;76.75;93139.03;5050665;28;20021;-41
2021/04/05 02:06:24;;;;;;;0.45;0.45;;;;;;;3.56;76.30;93140.00;5032541;28;20516;-42
2021/04/05 02:08:50;;;;;;;1.85;1.08;;;;;;;3.58;76.55;93143.69;5069522;28;20033;-41
2021/04/05 02:11:18;;;;;;;1.13;1.00;;;;;;;3.57;76.06;93144.22;5070217;28;20085;-41
2021/04/05 02:13:46;;;;;;;0.28;0.28;;;;;;;3.48;76.06;93152.75;5070413;28;20028;-42
2021/04/05 02:16:15;;;;;;;0.40;0.40;;;;;;;3.54;76.10;93145.97;5070497;28;20052;-40
2021/04/05 02:18:40;;;;;;;2.30;2.17;;;;;;;3.39;77.02;93147.59;5070438;28;20021;-40
2021/04/05 02:21:13;;;;;;;3.15;1.70;;;;;;;3.52;76.95;93145.00;5070459;28;20055;-42
2021/04/05 02:23:39;;;;;;;1.88;1.23;;;;;;;3.34;76.53;93148.38;5073623;28;20024;-44
2021/04/05 02:26:08;;;;;;;0.40;0.40;;;;;;;3.38;77.14;93157.06;5074074;28;20024;-44
2021/04/05 02:28:44;;;;;;;0.90;0.90;;;;;;;3.45;76.86;93143.56;5056547;28;20029;-45
2021/04/05 02:31:12;;;;;;;0.45;0.45;;;;;;;3.46;76.58;93157.97;5074147;28;20416;-41
2021/04/05 02:33:39;;;;;;;0.50;0.50;;;;;;;3.47;76.96;93160.19;5073750;28;20024;-43
2021/04/05 02:36:07;;;;;;;1.55;1.50;;;;;;;3.46;76.41;93155.25;5073484;28;20056;-42
2021/04/05 02:38:35;;;;;;;0.20;0.20;;;;;;;3.51;75.94;93149.72;5055828;28;20029;-44
2021/04/05 02:41:00;;;;;;;0.45;0.45;;;;;;;3.39;76.64;93150.34;5073675;28;20059;-42
2021/04/05 02:43:26;;;;;;;0.47;0.47;;;;;;;3.34;76.10;93145.66;5073630;28;20067;-41
2021/04/05 02:45:52;;;;;;;1.73;1.63;;;;;;;3.32;76.59;93159.81;5031853;28;20079;-43
2021/04/05 02:48:17;;;;;;;1.83;1.73;;;;;;;3.48;76.20;93155.47;5053847;28;20508;-40
2021/04/05 02:50:43;;;;;;;1.08;1.08;;;;;;;3.42;76.49;93158.22;5035967;28;20041;-40
2021/04/05 02:53:09;;;;;;;2.33;1.52;;;;;;;3.47;75.67;93153.97;5053623;28;20091;-42
2021/04/05 02:55:35;;;;;;;0.88;0.88;;;;;;;3.43;75.96;93153.50;5035880;28;20559;-41
2021/04/05 02:58:04;;;;;;;0.40;0.40;;;;;;;3.45;76.09;93151.00;5053740;28;20048;-41
2021/04/05 03:00:29;;;;;;;1.55;1.48;;;;;;;3.37;75.67;93155.56;5052192;28;20472;-39
2021/04/05 03:02:55;;;;;;;0.60;0.60;;;;;;;3.31;75.88;93160.34;5054531;28;20044;-40
2021/04/05 03:05:25;;;;;;;0.82;0.82;;;;;;;3.32;76.06;93153.59;5073192;28;20043;-44
2021/04/05 03:07:51;;;;;;;0.88;0.88;;;;;;;3.28;76.52;93156.63;5073122;28;20052;-40
2021/04/05 03:10:20;;;;;;;0.52;0.52;;;;;;;3.37;76.48;93161.03;5073171;28;20028;-39
2021/04/05 03:12:49;;;;;;;0.82;0.82;;;;;;;3.38;75.98;93154.31;5072933;28;20059;-40
2021/04/05 03:15:15;;;;;;;2.38;1.38;;;;;;;3.21;76.38;93159.91;5055306;28;20020;-40
2021/04/05 03:17:41;;;;;;;1.23;1.20;;;;;;;3.18;76.38;93166.38;5073261;28;20400;-39
2021/04/05 03:20:18;;;;;;;0.40;0.40;;;;;;;3.00;77.36;93167.00;5055132;28;20447;-41
2021/04/05 03:22:44;;;;;;;0.40;0.40;;;;;;;3.10;76.60;93165.44;5073128;28;20051;-40
2021/04/05 03:25:21;;;;;;;0.73;0.73;;;;;;;3.00;77.58;93165.03;5054900;28;20492;-43
2021/04/05 03:27:48;;;;;;;1.13;0.90;;;;;;;2.97;77.25;93168.75;5073069;28;20131;-41
2021/04/05 03:30:43;;;;;;;0.40;0.40;;;;;;;2.84;78.75;93171.31;5054461;28;20085;-40
2021/04/05 03:33:25;;;;;;;0.22;0.22;;;;;;;2.85;78.46;93177.53;5058805;28;20033;-42
2021/04/05 03:36:00;;;;;;;0.20;0.20;;;;;;;2.82;78.42;93178.53;5071474;28;20140;-42
2021/04/05 03:38:25;;;;;;;0.63;0.60;;;;;;;2.91;78.05;93170.03;5054661;28;20493;-42
2021/04/05 03:40:51;;;;;;;1.52;1.27;;;;;;;3.04;77.95;93179.13;5072798;28;20032;-41
2021/04/05 03:43:28;;;;;;;0.30;0.30;;;;;;;2.99;78.39;93173.69;5053637;28;20075;-40
2021/04/05 03:46:05;;;;;;;1.10;1.10;;;;;;;3.13;77.15;93180.06;5054157;28;20029;-43
2021/04/05 03:48:36;;;;;;;0.32;0.32;;;;;;;3.05;77.64;93180.59;5054847;28;20479;-44
2021/04/05 03:51:21;;;;;;;0.30;0.30;;;;;;;3.04;76.36;93173.69;5054874;28;20029;-41
2021/04/05 03:53:50;;;;;;;0.50;0.50;;;;;;;3.12;76.98;93181.31;5054736;28;20032;-40
2021/04/05 03:56:17;;;;;;;1.08;1.08;;;;;;;3.03;77.27;93179.66;5071329;28;20394;-40
2021/04/05 03:58:46;;;;;;;2.80;2.60;;;;;;;3.09;77.54;93177.59;5072491;28;20028;-40
2021/04/05 04:01:15;;;;;;;1.30;1.15;;;;;;;3.12;76.38;93176.56;5053820;28;20036;-41
2021/04/05 04:04:05;;;;;;;0.73;0.73;;;;;;;2.94;77.12;93177.22;5034808;28;20028;-41
2021/04/05 04:06:41;;;;;;;0.98;0.70;;;;;;;2.97;77.28;93178.91;5048001;28;20031;-43
2021/04/05 04:09:07;;;;;;;2.28;2.13;;;;;;;3.08;77.13;93176.13;5071884;28;20075;-40
2021/04/05 04:11:34;;;;;;;0.95;0.95;;;;;;;3.19;75.40;93189.69;5072180;28;20504;-39
2021/04/05 04:14:02;;;;;;;1.10;1.10;;;;;;;2.95;76.12;93176.72;5054203;28;20028;-41
2021/04/05 04:16:29;;;;;;;1.77;1.65;;;;;;;2.95;77.31;93176.72;5071730;28;20035;-40
2021/04/05 04:18:56;;;;;;;0.43;0.43;;;;;;;3.03;76.84;93183.09;5054229;28;20036;-40
2021/04/05 04:21:21;;;;;;;0.88;0.77;;;;;;;3.19;76.22;93178.03;5053847;28;20475;-39
2021/04/05 04:23:47;;;;;;;9.95;2.05;;;;;;;3.29;76.28;93182.66;5053938;28;20024;-38
2021/04/05 04:26:12;;;;;;;0.60;0.60;;;;;;;3.16;76.38;93179.78;5054033;28;20090;-39
2021/04/05 04:28:43;;;;;;;1.85;1.75;;;;;;;3.05;76.81;93166.97;5054042;28;20052;-39
2021/04/05 04:31:08;;;;;;;0.57;0.57;;;;;;;3.08;76.04;93168.69;5071045;28;20028;-38
2021/04/05 04:33:33;;;;;;;1.50;1.40;;;;;;;3.29;75.79;93187.38;5071304;28;20047;-40
2021/04/05 04:35:59;;;;;;;1.00;0.98;;;;;;;3.33;75.97;93185.13;5071185;28;20044;-38
2021/04/05 04:38:26;;;;;;;1.95;1.85;;;;;;;3.35;76.10;93172.44;5071652;28;20024;-39
2021/04/05 04:40:52;;;;;;;0.90;0.90;;;;;;;3.53;75.75;93184.72;5070222;28;20024;-39
2021/04/05 04:43:18;;;;;;;0.93;0.93;;;;;;;3.50;75.86;93188.44;5061131;28;20394;-39
2021/04/05 04:45:44;;;;;;;1.10;1.00;;;;;;;3.42;75.47;93198.44;5061412;28;20032;-40
2021/04/05 04:48:09;;;;;;;1.10;1.10;;;;;;;3.45;75.68;93197.41;5062006;28;20099;-40
2021/04/05 04:50:35;;;;;;;1.15;1.15;;;;;;;3.51;75.14;93195.41;5060600;28;20413;-41
2021/04/05 04:53:01;;;;;;;1.52;1.45;;;;;;;3.45;75.05;93197.41;5060415;28;20024;-46
2021/04/05 04:55:27;;;;;;;1.40;1.30;;;;;;;3.46;75.82;93202.38;5060382;28;20404;-42
2021/04/05 04:57:59;;;;;;;0.77;0.77;;;;;;;3.46;75.22;93204.34;5061219;28;20493;-39
2021/04/05 05:00:25;;;;;;;1.42;1.33;;;;;;;3.49;75.00;93206.81;5061657;28;20029;-38
2021/04/05 05:02:52;;;;;;;2.50;1.90;;;;;;;3.66;74.39;93203.94;5058928;28;20044;-39
2021/04/05 05:05:20;;;;;;;2.20;1.88;;;;;;;3.76;74.12;93202.34;5060548;28;20562;-39
2021/04/05 05:07:46;;;;;;;2.97;2.60;;;;;;;3.74;72.79;93207.59;5060340;28;20033;-43
2021/04/05 05:10:12;;;;;;;0.80;0.80;;;;;;;3.72;73.55;93212.81;5059643;28;20743;-41
2021/04/05 05:12:39;;;;;;;1.02;1.02;;;;;;;3.59;74.74;93196.31;5060291;28;20477;-41
2021/04/05 05:15:11;;;;;;;1.73;1.60;;;;;;;3.63;74.57;93211.16;5061080;28;20028;-40
2021/04/05 05:17:39;;;;;;;2.17;2.08;;;;;;;3.69;74.96;93214.59;5060311;28;20087;-39
2021/04/05 05:20:05;;;;;;;2.83;1.70;;;;;;;3.64;75.02;93211.88;5051383;28;20036;-40
2021/04/05 05:22:32;;;;;;;0.43;0.43;;;;;;;3.74;74.72;93221.25;5069418;28;20086;-40
2021/04/05 05:24:57;;;;;;;1.75;1.40;;;;;;;3.70;74.86;93223.50;5049362;28;20032;-43
2021/04/05 05:27:24;;;;;;;3.03;2.30;;;;;;;3.72;74.72;93223.75;5051721;28;20499;-41
2021/04/05 05:29:50;;;;;;;1.85;1.75;;;;;;;3.73;73.88;93234.16;5041291;28;20033;-40
2021/04/05 05:32:17;;;;;;;3.13;1.67;;;;;;;3.63;73.93;93232.25;5060186;28;20043;-43
2021/04/05 05:34:45;;;;;;;3.80;1.25;;;;;;;3.48;74.60;93237.34;5040892;28;20052;-40
2021/04/05 05:37:10;;;;;;;0.98;0.98;;;;;;;3.65;74.79;93235.22;5062924;28;20040;-39
2021/04/05 05:39:36;;;;;;;0.90;0.90;;;;;;;3.59;74.70;93248.91;5059983;28;20055;-40
2021/04/05 05:42:06;;;;;;;0.45;0.45;;;;;;;3.59;74.87;93235.28;5059515;28;20489;-40
2021/04/05 05:44:44;;;;;;;1.10;1.10;;;;;;;3.57;74.74;93245.22;5046128;28;20017;-39
2021/04/05 05:47:12;;;;;;;2.78;2.30;;;;;;;3.60;74.30;93241.44;5064693;28;20021;-38
2021/04/05 05:49:49;;;;;;;3.33;1.27;;;;;;;3.69;74.25;93235.69;5070231;28;20032;-38
2021/04/05 05:53:09;;;;;;;2.65;2.47;;;;;;;3.77;74.59;93236.59;5070133;28;20103;-38
2021/04/05 05:55:41;;;;;;;5.97;2.00;;;;;;;3.78;74.05;93240.81;4988632;28;20050;-38
2021/04/05 05:58:30;;;;;;;0.80;0.80;;;;;;;3.98;74.13;93234.94;5071648;28;20078;-39
2021/04/05 06:12:02;;;;;;;4.90;3.03;;;;;;;5.18;68.07;93241.44;5117388;27;20361;-43
2021/04/05 06:14:51;;;;;;;1.40;1.35;;;;;;;5.08;69.34;93245.81;5106236;28;20071;-45
2021/04/05 06:17:22;;;;;;;;;;;;;;;5.02;69.92;93251.38;5106245;28;20027;-43
2021/04/05 06:19:50;;;;;;;2.55;1.60;;;;;;;4.85;69.89;93253.56;5103784;28;19973;-46
2021/04/05 06:22:37;;;;;;;0.77;0.77;;;;;;;4.73;69.98;93257.72;5090232;28;20033;-45
2021/04/05 06:25:07;;;;;;;5.25;0.98;;;;;;;4.65;69.90;93254.09;5087123;28;20044;-47
2021/04/05 06:27:50;;;;;;;1.65;1.00;;;;;;;4.40;70.69;93264.28;5105924;28;20035;-48
2021/04/05 06:30:27;;;;;;;0.82;0.82;;;;;;;4.34;71.79;93260.13;5105888;28;20061;-48
2021/04/05 06:33:08;;;;;;;0.95;0.95;;;;;;;4.29;71.81;93264.41;5102729;28;20032;-45
2021/04/05 06:35:55;;;;;;;2.33;1.48;;;;;;;4.50;70.90;93267.44;5105170;28;20057;-44
2021/04/05 06:38:31;;;;;;;1.05;0.98;;;;;;;4.46;71.69;93269.72;5107035;28;20552;-45
2021/04/05 06:40:57;;;;;;;0.50;0.50;;;;;;;4.57;71.86;93272.31;5106831;28;20073;-43
2021/04/05 06:43:49;;;;;;;0.75;0.75;;;;;;;4.45;71.47;93263.50;5105468;28;20063;-45
2021/04/05 06:46:28;;;;;;;3.30;1.48;;;;;;;4.71;71.16;93271.16;5106231;28;20098;-45
2021/04/05 06:49:02;;;;;;;2.17;2.08;;;;;;;4.66;71.31;93282.16;5105353;28;20028;-44
2021/04/05 06:51:41;;;;;;;0.98;0.98;;;;;;;4.71;71.52;93278.63;5104706;28;20034;-46
2021/04/05 06:54:12;;;;;;;1.85;1.75;;;;;;;4.86;70.18;93287.88;5106368;28;20626;-45
2021/04/05 06:57:11;;;;;;;1.95;1.85;;;;;;;4.98;70.30;93289.22;5084726;28;20036;-45
2021/04/05 07:00:00;;;;;;;1.85;1.50;;;;;;;5.07;68.31;93294.34;5084630;28;20473;-45
2021/04/05 07:02:44;;;;;;;1.40;1.30;;;;;;;5.16;67.59;93298.69;5104519;28;20407;-44
2021/04/05 07:05:29;;;;;;;1.23;1.10;;;;;;;5.18;68.92;93307.88;5103608;28;20038;-47
2021/04/05 07:08:01;;;;;;;3.15;1.60;;;;;;;5.18;69.41;93305.13;5102302;28;20415;-45
2021/04/05 07:10:33;;;;;;;2.78;1.45;;;;;;;5.30;67.84;93319.44;5083680;28;20649;-44
2021/04/05 07:13:03;;;;;;;2.50;2.33;;;;;;;5.38;68.66;93307.38;5068018;28;20085;-44
2021/04/05 07:15:34;;;;;;;0.82;0.82;;;;;;;5.44;68.93;93307.28;5070383;28;20093;-44
2021/04/05 07:18:11;;;;;;;1.05;1.05;;;;;;;5.69;67.57;93302.44;5070648;28;20032;-44
2021/04/05 07:21:18;;;;;;;0.68;0.68;;;;;;;5.81;64.99;93307.25;5068487;28;20033;-45
2021/04/05 07:23:56;;;;;;;1.75;1.65;;;;;;;5.85;65.68;93313.19;5068925;28;20550;-44
2021/04/05 07:26:26;;;;;;;1.38;1.38;;;;;;;5.92;64.54;93318.06;5069876;28;20159;-44
2021/04/05 07:28:57;;;;;;;2.63;2.40;;;;;;;5.87;66.35;93315.38;5068745;28;20082;-46
2021/04/05 07:31:39;;;;;;;1.88;1.77;;;;;;;5.52;67.45;93315.66;5070026;28;20020;-46
2021/04/05 07:34:25;;;;;;;1.40;1.35;;;;;;;5.78;66.84;93319.22;5069982;28;20056;-45
2021/04/05 07:37:14;;;;;;;4.15;3.75;;;;;;;6.25;66.86;93319.53;5068842;28;20024;-45
2021/04/05 07:39:45;;;;;;;1.38;1.38;;;;;;;6.46;64.63;93316.91;5070273;28;20050;-46
2021/04/05 07:42:20;;;;;;;1.45;1.35;;;;;;;6.49;64.33;93318.63;5068592;28;20032;-46
2021/04/05 07:44:57;;;;;;;1.58;1.48;;;;;;;6.78;65.78;93312.84;5069053;28;20029;-46
2021/04/05 07:47:42;;;;;;;2.13;1.23;;;;;;;6.98;61.51;93319.69;5075842;28;20040;-45
2021/04/05 07:50:15;;;;;;;1.00;1.00;;;;;;;7.06;63.93;93315.03;5086051;28;20023;-46
2021/04/05 07:52:50;;;;;;;3.97;2.38;;;;;;;7.07;62.97;93324.78;5088851;28;20628;-45
2021/04/05 07:55:16;;;;;;;1.88;1.33;;;;;;;6.64;63.38;93329.81;5088801;28;20043;-46
2021/04/05 07:58:04;;;;;;;1.50;1.40;;;;;;;6.99;64.20;93331.44;5088110;28;20028;-44
2021/04/05 08:00:56;;;;;;;1.88;1.80;;;;;;;6.62;65.47;93332.34;5088595;28;20024;-43
2021/04/05 08:03:29;;;;;;;0.40;0.40;;;;;;;6.69;64.40;93334.47;5059491;28;20122;-48
2021/04/05 08:06:02;;;;;;;3.20;1.23;;;;;;;6.27;67.17;93335.44;5085724;28;20089;-45
2021/04/05 08:08:34;;;;;;;0.82;0.82;;;;;;;6.31;64.84;93338.63;5089116;28;20477;-46
2021/04/05 08:11:21;;;;;;;3.05;1.85;;;;;;;6.22;66.45;93336.25;5083222;28;20087;-45
2021/04/05 08:14:14;;;;;;;2.80;1.38;;;;;;;6.42;64.93;93338.44;5067820;28;20042;-46
2021/04/05 08:16:46;;;;;;;1.30;1.17;;;;;;;6.48;64.06;93333.59;5080665;28;20081;-45
2021/04/05 08:19:14;;;;;;;1.38;1.30;;;;;;;6.68;62.09;93317.28;5088528;28;20028;-44
2021/04/05 08:22:03;;;;;;;2.05;1.63;;;;;;;6.67;63.22;93332.25;5087377;28;20123;-44
2021/04/05 08:24:54;;;;;;;;;;;;;;;7.10;61.31;93334.69;5085252;28;20063;-44
2021/04/05 08:27:44;;;;;;;0.50;0.50;;;;;;;7.57;60.76;93331.97;5080464;28;19914;-46
2021/04/05 08:30:21;;;;;;;0.22;0.22;;;;;;;8.09;56.42;93334.56;5088138;28;20036;-46
2021/04/05 08:33:11;;;;;;;0.88;0.88;;;;;;;8.27;58.62;93335.69;5087389;28;20027;-45
2021/04/05 08:35:46;;;;;;;1.80;1.70;;;;;;;8.54;57.83;93328.75;5088744;28;20043;-46
2021/04/05 08:38:42;;;;;;;0.68;0.68;;;;;;;9.46;54.10;93325.28;5087145;28;20036;-46
2021/04/05 08:41:32;;;;;;;4.28;2.58;;;;;;;11.02;50.22;93324.66;5080189;28;20028;-44
2021/04/05 08:44:16;;;;;;;3.25;2.70;;;;;;;11.39;46.22;93332.13;5067018;28;20032;-44
2021/04/05 08:46:43;;;;;;;0.85;0.85;;;;;;;11.69;49.08;93337.59;5068101;28;20044;-45
2021/04/05 08:49:20;;;;;;;1.85;1.75;;;;;;;11.92;48.01;93331.97;5068627;28;20029;-46
2021/04/05 08:51:50;;;;;;;1.15;1.15;;;;;;;11.03;46.99;93323.34;5068741;28;20103;-45
2021/04/05 08:54:18;;;;;;;2.25;1.85;;;;;;;10.95;48.31;93328.16;5067703;28;20024;-47
2021/04/05 08:56:50;;;;;;;1.23;1.15;;;;;;;10.89;49.03;93324.84;5067060;28;20068;-45
2021/04/05 08:59:26;;;;;;;0.65;0.65;;;;;;;10.75;50.91;93323.56;5068191;28;20039;-47
2021/04/05 09:02:01;;;;;;;1.63;0.77;;;;;;;10.89;50.15;93331.09;5067270;28;20025;-46
2021/04/05 09:04:27;;;;;;;0.50;0.50;;;;;;;11.16;48.76;93325.91;5067031;28;20032;-47
2021/04/05 09:07:05;;;;;;;1.75;0.95;;;;;;;10.68;50.06;93316.03;5069693;28;20502;-46
2021/04/05 09:09:32;;;;;;;1.60;1.02;;;;;;;10.09;49.94;93318.16;5082279;28;20028;-48
2021/04/05 09:11:58;;;;;;;0.63;0.63;;;;;;;10.11;47.21;93313.59;5086188;28;20038;-45
2021/04/05 09:14:24;;;;;;;0.88;0.75;;;;;;;10.03;47.80;93315.53;5085781;28;20028;-45
2021/04/05 09:16:58;;;;;;;2.22;2.10;;;;;;;9.91;49.65;93306.16;5087113;28;20024;-45
2021/04/05 09:20:08;;;;;;;0.90;0.90;;;;;;;10.30;48.33;93311.22;5087710;28;20024;-47
2021/04/05 09:22:49;;;;;;;2.20;2.10;;;;;;;9.67;50.45;93301.09;5088401;28;20043;-46
2021/04/05 09:25:20;;;;;;;2.33;1.48;;;;;;;9.67;46.82;93301.09;5087963;28;20086;-45
2021/04/05 09:28:11;;;;;;;1.08;0.68;;;;;;;9.60;46.99;93307.31;5084325;28;20053;-45
2021/04/05 09:31:01;;;;;;;0.73;0.73;;;;;;;9.18;47.74;93311.56;5084890;28;20123;-47
2021/04/05 09:33:53;;;;;;;0.45;0.40;;;;;;;9.34;50.30;93302.06;5084977;28;20035;-46
2021/04/05 09:36:47;;;;;;;1.55;1.45;;;;;;;9.52;50.94;93304.56;5085043;28;20051;-46
2021/04/05 09:39:45;;;;;;;1.40;1.08;;;;;;;9.71;50.78;93295.97;5084242;28;20036;-47
2021/04/05 09:42:27;;;;;;;0.60;0.60;;;;;;;9.99;51.08;93300.63;5076124;28;20165;-45
2021/04/05 09:45:01;;;;;;;0.63;0.63;;;;;;;10.32;49.98;93296.84;5077293;28;20498;-47
2021/04/05 09:48:02;;;;;;;0.73;0.73;;;;;;;10.41;47.18;93299.09;5068600;28;20032;-47
2021/04/05 09:51:08;;;;;;;0.68;0.68;;;;;;;10.16;46.49;93296.09;5067233;28;20034;-45
2021/04/05 09:53:53;;;;;;;0.60;0.60;;;;;;;9.97;46.32;93289.41;5068328;28;20043;-45
2021/04/05 09:56:26;;;;;;;0.63;0.63;;;;;;;10.15;48.29;93291.16;5079657;28;20027;-45
2021/04/05 09:58:57;;;;;;;0.85;0.85;;;;;;;9.92;47.11;93299.34;5087088;28;20066;-45
2021/04/05 10:01:27;;;;;;;0.47;0.47;;;;;;;10.46;46.17;93285.09;5085714;28;20118;-46
2021/04/05 10:04:07;;;;;;;0.90;0.40;;;;;;;11.32;44.17;93283.13;5067193;28;20056;-46
2021/04/05 10:06:34;;;;;;;0.95;0.95;;;;;;;12.14;41.82;93278.53;5067498;28;20032;-48
2021/04/05 10:09:02;;;;;;;0.82;0.82;;;;;;;12.15;41.41;93274.44;5076747;28;20053;-48
2021/04/05 10:11:29;;;;;;;0.55;0.55;;;;;;;11.01;43.93;93276.94;5086892;28;20071;-46
2021/04/05 10:14:01;;;;;;;1.33;1.30;;;;;;;11.01;45.45;93276.19;5082897;28;20048;-46
2021/04/05 10:16:27;;;;;;;2.50;1.40;;;;;;;11.18;43.57;93273.56;5073224;28;20041;-47
2021/04/05 10:19:18;;;;;;;1.20;1.10;;;;;;;11.05;46.38;93273.78;5074266;28;20561;-47
2021/04/05 10:22:07;;;;;;;2.42;1.55;;;;;;;10.83;47.92;93253.22;5072399;28;20040;-49
2021/04/05 10:24:33;;;;;;;0.60;0.60;;;;;;;10.77;43.99;93258.19;5079502;28;20028;-50
2021/04/05 10:27:05;;;;;;;1.10;1.05;;;;;;;11.05;45.55;93246.16;5076522;28;20035;-47
2021/04/05 10:29:33;;;;;;;1.52;0.93;;;;;;;10.73;44.79;93235.75;5080459;28;20133;-47
2021/04/05 10:32:02;;;;;;;2.63;2.42;;;;;;;10.62;43.63;93236.88;5076599;28;20024;-46
2021/04/05 10:34:28;;;;;;;0.52;0.52;;;;;;;10.53;44.33;93231.16;5076090;28;20073;-49
2021/04/05 10:37:02;;;;;;;0.43;0.43;;;;;;;10.77;42.18;93229.84;5073458;28;20020;-48
2021/04/05 10:39:28;;;;;;;1.77;1.67;;;;;;;10.25;46.55;93221.06;5079578;28;20093;-49
2021/04/05 10:42:08;;;;;;;0.68;0.68;;;;;;;10.55;45.33;93221.03;5075738;28;20488;-50
2021/04/05 10:44:37;;;;;;;1.90;1.25;;;;;;;10.59;42.49;93215.13;5072343;28;20029;-47
2021/04/05 10:47:07;;;;;;;4.43;0.85;;;;;;;11.71;43.39;93218.84;5077591;28;20048;-48
2021/04/05 10:49:34;;;;;;;0.55;0.55;;;;;;;13.33;41.99;93208.78;5079797;28;20036;-48
2021/04/05 10:52:19;;;;;;;0.95;0.95;;;;;;;14.78;33.26;93199.84;5077624;28;20029;-46
2021/04/05 10:54:49;;;;;;;0.90;0.73;;;;;;;15.40;33.60;93198.84;5072224;28;20032;-49
2021/04/05 10:57:32;;;;;;;4.28;1.17;;;;;;;16.96;34.18;93185.31;5088160;28;20035;-46
2021/04/05 11:00:07;;;;;;;1.75;1.65;;;;;;;18.76;31.32;93187.69;5088824;28;20028;-45
2021/04/05 11:02:39;;;;;;;1.30;0.95;;;;;;;19.53;29.42;93187.31;5089272;28;20024;-46
2021/04/05 11:05:08;;;;;;;0.60;0.60;;;;;;;18.49;29.14;93193.06;5089187;28;20536;-47
2021/04/05 11:07:34;;;;;;;0.20;0.20;;;;;;;17.26;31.04;93204.06;5089997;28;20565;-45
2021/04/05 11:10:03;;;;;;;1.45;1.02;;;;;;;16.25;31.48;93188.88;5088973;28;20048;-48
2021/04/05 11:12:40;;;;;;;1.70;0.60;;;;;;;15.73;33.09;93177.63;5085713;28;20031;-46
2021/04/05 11:15:10;;;;;;;0.68;0.68;;;;;;;15.04;33.64;93177.50;5088786;28;20342;-48
2021/04/05 11:17:40;;;;;;;1.45;1.38;;;;;;;15.42;37.12;93176.75;5090069;28;20023;-49
2021/04/05 11:20:08;;;;;;;0.68;0.68;;;;;;;17.17;34.32;93183.25;5089680;28;20515;-47
2021/04/05 11:22:34;;;;;;;0.85;0.85;;;;;;;17.25;30.18;93174.69;5090096;28;20077;-49
2021/04/05 11:25:06;;;;;;;1.58;1.48;;;;;;;16.19;32.01;93176.59;5088137;28;20085;-48
2021/04/05 11:27:35;;;;;;;1.05;0.95;;;;;;;15.60;31.96;93158.59;5090215;28;20031;-51
2021/04/05 11:30:04;;;;;;;1.08;0.60;;;;;;;15.49;33.29;93175.16;5082526;28;20094;-51
2021/04/05 11:32:32;;;;;;;0.70;0.70;;;;;;;14.65;34.07;93162.09;5075421;28;20040;-48
2021/04/05 11:34:59;;;;;;;1.08;0.98;;;;;;;14.58;30.50;93157.38;5078909;28;20457;-53
2021/04/05 11:37:30;;;;;;;0.40;0.35;;;;;;;14.65;33.06;93159.31;5077293;28;20016;-48
2021/04/05 11:40:09;;;;;;;2.30;0.85;;;;;;;15.00;33.42;93157.75;5067418;28;20032;-48
2021/04/05 11:42:37;;;;;;;;;;;;;;;15.86;31.50;93154.13;5068189;28;20041;-46
2021/04/05 11:45:05;;;;;;;0.47;0.47;;;;;;;15.49;32.38;93148.06;5068010;28;20030;-46
2021/04/05 11:47:37;;;;;;;0.50;0.40;;;;;;;14.78;33.52;93141.47;5068219;28;20025;-46
2021/04/05 11:50:14;;;;;;;0.70;0.70;;;;;;;13.93;32.59;93145.47;5070689;28;20516;-47
2021/04/05 11:52:50;;;;;;;1.15;1.05;;;;;;;14.37;33.30;93143.31;5077665;28;20020;-47
2021/04/05 11:55:21;;;;;;;0.47;0.40;;;;;;;14.17;34.29;93134.16;5070629;28;20054;-50
2021/04/05 11:58:00;;;;;;;0.90;0.68;;;;;;;14.42;31.91;93125.63;5088768;28;20031;-52
2021/04/05 12:00:37;;;;;;;1.45;1.20;;;;;;;14.63;31.12;93128.59;5089017;28;20496;-47
2021/04/05 12:03:09;;;;;;;0.70;0.70;;;;;;;14.72;36.67;93125.09;5082868;28;20020;-49
2021/04/05 12:05:38;;;;;;;0.55;0.55;;;;;;;14.59;36.38;93114.41;5067527;28;20509;-49
2021/04/05 12:08:19;;;;;;;0.52;0.43;;;;;;;15.14;37.33;93107.97;5070531;28;20024;-48
2021/04/05 12:10:47;;;;;;;1.65;1.55;;;;;;;15.51;33.67;93111.28;5087529;28;20079;-54
2021/04/05 12:13:29;;;;;;;1.42;1.33;;;;;;;15.47;36.08;93091.53;5082743;28;20047;-47
2021/04/05 12:15:59;;;;;;;1.52;1.48;;;;;;;15.58;32.61;93093.72;5067503;28;20024;-49
2021/04/05 12:18:25;;;;;;;0.60;0.60;;;;;;;15.56;34.74;93096.34;5068010;28;20459;-47